Time;durP1;ratioP1;P1;durP2;ratioP2;P2;SDS_P1;SDS_P2;PMS_P1;PMS_P2;Temp;Humidity;BMP_temperature;BMP_pressure;BME280_temperature;BME280_humidity;BME280_pressure;Samples;Min_cycle;Max_cycle;Signal;HPM_P1;HPM_P2
2022/06/24 00:01:29;;;;;;;3.93;1.50;;;;;;;18.90;100.00;97667.47;5054075;28;20306;-74
2022/06/24 00:03:55;;;;;;;4.63;1.53;;;;;;;18.90;100.00;97664.78;5054287;28;20216;-74
2022/06/24 00:06:22;;;;;;;6.50;1.50;;;;;;;18.90;100.00;97662.09;5052561;28;20216;-75
2022/06/24 00:08:57;;;;;;;3.50;1.50;;;;;;;18.90;100.00;97661.28;5053671;28;20212;-75
2022/06/24 00:11:28;;;;;;;3.10;1.60;;;;;;;18.92;100.00;97659.25;5053705;28;20215;-75
2022/06/24 00:14:07;;;;;;;3.13;1.47;;;;;;;18.92;100.00;97657.44;5050626;28;20231;-75
2022/06/24 00:16:53;;;;;;;2.87;1.60;;;;;;;18.92;100.00;97665.47;5054229;28;20223;-75
2022/06/24 00:19:19;;;;;;;3.33;1.33;;;;;;;18.89;100.00;97657.75;5050139;28;20215;-74
2022/06/24 00:21:57;;;;;;;2.97;1.50;;;;;;;18.89;100.00;97654.28;5054030;28;20216;-74
2022/06/24 00:24:24;;;;;;;3.57;1.50;;;;;;;18.86;100.00;97649.22;5053671;28;20230;-75
2022/06/24 00:26:51;;;;;;;2.70;1.60;;;;;;;18.80;100.00;97645.41;5053598;28;20227;-75
2022/06/24 00:29:19;;;;;;;4.43;1.73;;;;;;;18.81;100.00;97644.38;5053465;28;20672;-75
2022/06/24 00:32:04;;;;;;;2.20;1.40;;;;;;;18.79;100.00;97649.09;5052057;28;20245;-74
2022/06/24 00:34:30;;;;;;;2.13;1.57;;;;;;;18.81;100.00;97644.38;5053615;28;20235;-75
2022/06/24 00:36:57;;;;;;;2.17;1.53;;;;;;;18.83;100.00;97641.56;5053553;28;20220;-74
2022/06/24 00:39:34;;;;;;;3.07;1.60;;;;;;;18.84;100.00;97651.25;5053680;28;20231;-76
2022/06/24 00:42:01;;;;;;;3.03;1.80;;;;;;;18.85;100.00;97648.41;5042630;28;20218;-75
2022/06/24 00:44:40;;;;;;;3.37;1.80;;;;;;;18.82;100.00;97637.19;5053155;28;20223;-75
2022/06/24 00:47:08;;;;;;;2.63;1.70;;;;;;;18.84;100.00;97641.34;5053384;28;20222;-74
2022/06/24 00:49:35;;;;;;;3.83;1.80;;;;;;;18.87;100.00;97641.03;5053463;28;20572;-75
2022/06/24 00:52:07;;;;;;;5.63;1.73;;;;;;;18.88;100.00;97623.97;5053268;28;20252;-74
2022/06/24 00:54:34;;;;;;;4.70;1.87;;;;;;;18.85;100.00;97618.97;5053206;28;20290;-75
2022/06/24 00:57:01;;;;;;;2.80;1.63;;;;;;;18.84;100.00;97614.59;5053390;28;20218;-74
2022/06/24 00:59:29;;;;;;;3.27;1.73;;;;;;;18.80;100.00;97602.56;5051103;28;20306;-74
2022/06/24 01:01:55;;;;;;;3.67;1.63;;;;;;;18.78;100.00;97604.56;5053371;28;20226;-74
2022/06/24 01:04:31;;;;;;;2.20;1.70;;;;;;;18.79;100.00;97608.06;5053351;28;20222;-75
2022/06/24 01:06:58;;;;;;;2.97;1.97;;;;;;;18.79;100.00;97613.44;5049254;28;20696;-75
2022/06/24 01:09:25;;;;;;;3.00;1.97;;;;;;;18.77;100.00;97602.06;5052995;28;20584;-75
2022/06/24 01:11:51;;;;;;;2.90;2.00;;;;;;;18.73;100.00;97598.03;5052982;28;20219;-74
2022/06/24 01:14:18;;;;;;;4.00;2.30;;;;;;;18.71;100.00;97587.50;5053110;28;20241;-74
2022/06/24 01:16:46;;;;;;;3.77;1.90;;;;;;;18.73;100.00;97592.69;5052816;28;20213;-74
2022/06/24 01:19:14;;;;;;;2.27;1.77;;;;;;;18.67;100.00;97591.53;5040264;28;20212;-74
2022/06/24 01:21:44;;;;;;;3.00;2.20;;;;;;;18.63;100.00;97578.63;5052901;28;20212;-73
2022/06/24 01:24:12;;;;;;;4.03;2.00;;;;;;;18.61;100.00;97573.47;5051249;28;20592;-73
2022/06/24 01:26:40;;;;;;;3.87;1.70;;;;;;;18.60;100.00;97574.47;5049544;28;20571;-73
2022/06/24 01:29:07;;;;;;;4.73;2.00;;;;;;;18.55;100.00;97574.16;5052812;28;20208;-73
2022/06/24 01:31:34;;;;;;;5.10;2.30;;;;;;;18.55;100.00;97579.50;5052623;28;20212;-73
2022/06/24 01:34:01;;;;;;;3.27;2.27;;;;;;;18.57;100.00;97569.47;5055531;28;20243;-73
2022/06/24 01:36:27;;;;;;;3.73;1.90;;;;;;;18.51;100.00;97561.25;5049061;28;20220;-71
2022/06/24 01:38:55;;;;;;;3.80;2.20;;;;;;;18.49;100.00;97560.59;5052762;28;20248;-73
2022/06/24 01:41:22;;;;;;;4.53;2.60;;;;;;;18.46;100.00;97558.28;5052716;28;20642;-73
2022/06/24 01:43:48;;;;;;;5.77;2.60;;;;;;;18.42;100.00;97564.94;5052358;28;20223;-72
2022/06/24 01:46:15;;;;;;;6.07;3.13;;;;;;;18.39;100.00;97563.44;5052743;28;20208;-73
2022/06/24 01:48:41;;;;;;;5.23;3.10;;;;;;;18.38;100.00;97576.97;5052575;28;20215;-73
2022/06/24 01:51:12;;;;;;;6.83;3.30;;;;;;;18.39;100.00;97586.69;5050927;28;20216;-73
2022/06/24 01:53:38;;;;;;;5.67;3.57;;;;;;;18.42;100.00;97587.19;5052771;28;20212;-73
2022/06/24 01:56:06;;;;;;;5.67;3.77;;;;;;;18.40;100.00;97583.84;5052527;28;20257;-73
2022/06/24 01:58:33;;;;;;;4.87;3.77;;;;;;;18.36;100.00;97576.31;5040348;28;20214;-73
2022/06/24 02:00:59;;;;;;;5.70;3.70;;;;;;;18.32;100.00;97575.81;5052700;28;20215;-73
2022/06/24 02:03:26;;;;;;;5.63;3.60;;;;;;;18.28;100.00;97581.66;5052311;28;20678;-73
2022/06/24 02:05:52;;;;;;;5.27;3.00;;;;;;;18.29;100.00;97584.13;5052397;28;20214;-74
2022/06/24 02:08:19;;;;;;;4.83;2.67;;;;;;;18.24;100.00;97578.44;5052575;28;20219;-74
2022/06/24 02:13:31;;;;;;;4.20;3.00;;;;;;;18.17;100.00;97588.13;5056032;28;20619;-73
2022/06/24 02:16:01;;;;;;;5.03;3.10;;;;;;;18.14;100.00;97577.78;5054262;28;20239;-74
2022/06/24 02:18:29;;;;;;;4.73;2.80;;;;;;;18.19;100.00;97570.13;5056085;28;20212;-74
2022/06/24 02:20:56;;;;;;;5.10;2.73;;;;;;;18.18;100.00;97568.44;5056131;28;20270;-74
2022/06/24 02:23:23;;;;;;;4.87;2.40;;;;;;;18.21;100.00;97562.75;5056154;28;20212;-74
2022/06/24 02:25:51;;;;;;;4.63;2.60;;;;;;;18.17;100.00;97556.03;5055820;28;20212;-74
2022/06/24 02:28:18;;;;;;;5.20;2.80;;;;;;;18.14;100.00;97551.03;5055843;28;20588;-74
2022/06/24 02:30:47;;;;;;;3.83;2.63;;;;;;;18.13;100.00;97549.38;5055759;28;20254;-74
2022/06/24 02:33:15;;;;;;;5.07;3.20;;;;;;;18.07;100.00;97560.75;5055334;28;20211;-74
2022/06/24 02:35:42;;;;;;;4.23;2.70;;;;;;;17.99;100.00;97552.69;5055634;28;20244;-74
2022/06/24 02:38:09;;;;;;;6.00;3.03;;;;;;;17.92;100.00;97554.34;5055627;28;20236;-74
2022/06/24 02:40:47;;;;;;;4.03;2.60;;;;;;;17.86;100.00;97546.19;5055581;28;20216;-74
2022/06/24 02:43:16;;;;;;;7.57;3.03;;;;;;;17.80;100.00;97554.84;5053617;28;20208;-74
2022/06/24 02:45:43;;;;;;;4.10;2.90;;;;;;;17.71;100.00;97545.97;5055349;28;20289;-75
2022/06/24 02:48:12;;;;;;;5.30;3.10;;;;;;;17.67;100.00;97546.47;5056364;28;20214;-75
2022/06/24 02:50:39;;;;;;;4.47;3.40;;;;;;;17.60;100.00;97548.97;5055533;28;20242;-74
2022/06/24 02:53:06;;;;;;;5.23;3.20;;;;;;;17.56;100.00;97555.63;5055402;28;20208;-74
2022/06/24 02:55:33;;;;;;;3.77;2.83;;;;;;;17.52;100.00;97554.28;5055039;28;20232;-74
2022/06/24 02:57:59;;;;;;;5.53;3.30;;;;;;;17.49;100.00;97549.25;5055542;28;20216;-75
2022/06/24 03:00:26;;;;;;;5.93;3.40;;;;;;;17.45;100.00;97553.28;5055324;28;20208;-74
2022/06/24 03:02:53;;;;;;;4.03;3.10;;;;;;;17.43;100.00;97555.25;5055567;28;20239;-75
2022/06/24 03:05:21;;;;;;;7.27;3.70;;;;;;;17.36;100.00;97559.53;5055550;28;20223;-75
2022/06/24 03:07:48;;;;;;;5.00;3.57;;;;;;;17.34;100.00;97556.19;5054148;28;20639;-75
2022/06/24 03:10:15;;;;;;;7.47;3.40;;;;;;;17.33;100.00;97554.53;5055058;28;20266;-75
2022/06/24 03:12:42;;;;;;;4.83;3.30;;;;;;;17.32;100.00;97552.03;5054889;28;20674;-75
2022/06/24 03:15:10;;;;;;;4.83;3.40;;;;;;;17.26;100.00;97545.47;5055080;28;20239;-75
2022/06/24 03:17:36;;;;;;;5.60;3.53;;;;;;;17.21;100.00;97555.81;5054939;28;20231;-75
2022/06/24 03:20:03;;;;;;;8.63;4.07;;;;;;;17.22;100.00;97549.47;5055173;28;20224;-75
2022/06/24 03:22:31;;;;;;;4.47;3.47;;;;;;;17.24;100.00;97552.00;5055025;28;20216;-76
2022/06/24 03:24:58;;;;;;;7.57;3.53;;;;;;;17.23;100.00;97556.50;5055098;28;20212;-75
2022/06/24 03:27:24;;;;;;;7.43;3.40;;;;;;;17.21;100.00;97553.16;5054861;28;20581;-75
2022/06/24 03:29:51;;;;;;;4.73;3.23;;;;;;;17.17;100.00;97549.13;5055032;28;20218;-75
2022/06/24 03:32:18;;;;;;;5.30;3.30;;;;;;;17.13;100.00;97542.41;5054885;28;20624;-75
2022/06/24 03:34:44;;;;;;;8.67;3.70;;;;;;;17.11;100.00;97544.44;5053140;28;20228;-75
2022/06/24 03:37:11;;;;;;;5.13;3.33;;;;;;;17.09;100.00;97541.09;5054463;28;20216;-75
2022/06/24 03:39:39;;;;;;;5.10;3.73;;;;;;;17.08;100.00;97539.38;5054854;28;20212;-75
2022/06/24 03:42:06;;;;;;;6.63;3.50;;;;;;;17.10;100.00;97542.75;5054656;28;20212;-75
2022/06/24 03:44:33;;;;;;;3.30;2.97;;;;;;;17.10;100.00;97536.56;5054723;28;20770;-75
2022/06/24 03:47:01;;;;;;;6.63;3.43;;;;;;;17.09;100.00;97543.75;5054355;28;20243;-75
2022/06/24 03:49:27;;;;;;;5.20;3.37;;;;;;;17.01;100.00;97541.03;5054633;28;20242;-75
2022/06/24 03:51:54;;;;;;;7.33;3.17;;;;;;;17.01;100.00;97543.69;5054200;28;20219;-75
2022/06/24 03:54:20;;;;;;;4.73;3.33;;;;;;;17.00;100.00;97530.53;5054363;28;20303;-75
2022/06/24 03:56:48;;;;;;;4.97;3.07;;;;;;;16.96;100.00;97530.00;5054053;28;20223;-75
2022/06/24 03:59:15;;;;;;;7.20;3.50;;;;;;;16.96;100.00;97527.31;5054082;28;20240;-75
2022/06/24 04:01:42;;;;;;;5.73;3.17;;;;;;;16.95;100.00;97527.50;5052292;28;20307;-75
2022/06/24 04:04:08;;;;;;;4.43;3.40;;;;;;;16.96;100.00;97524.66;5053958;28;20216;-75
2022/06/24 04:06:35;;;;;;;6.07;3.33;;;;;;;16.93;100.00;97524.97;5053926;28;20666;-75
2022/06/24 04:09:01;;;;;;;4.57;3.40;;;;;;;16.93;100.00;97534.81;5054119;28;20212;-76
2022/06/24 04:11:28;;;;;;;6.57;3.33;;;;;;;16.91;100.00;97521.66;5054095;28;20223;-76
2022/06/24 04:13:56;;;;;;;7.30;3.63;;;;;;;16.93;100.00;97527.66;5053826;28;20218;-75
2022/06/24 04:16:22;;;;;;;4.77;3.07;;;;;;;16.95;100.00;97525.66;5054034;28;20606;-76
2022/06/24 04:18:50;;;;;;;4.53;3.30;;;;;;;17.00;100.00;97531.34;5053966;28;20222;-76
2022/06/24 04:21:17;;;;;;;6.60;3.73;;;;;;;17.01;100.00;97543.69;5053707;28;20212;-75
2022/06/24 04:23:45;;;;;;;4.83;3.33;;;;;;;17.02;100.00;97529.34;5053581;28;20216;-76
2022/06/24 04:26:12;;;;;;;6.17;3.70;;;;;;;17.10;100.00;97537.41;5052193;28;20212;-76
2022/06/24 04:28:39;;;;;;;5.67;3.90;;;;;;;17.17;100.00;97526.91;5053978;28;20212;-75
2022/06/24 04:31:07;;;;;;;6.27;3.73;;;;;;;17.24;100.00;97533.31;5053474;28;20219;-76
2022/06/24 04:33:34;;;;;;;6.80;4.10;;;;;;;17.34;100.00;97524.16;5053419;28;20696;-76
2022/06/24 04:36:01;;;;;;;6.53;3.77;;;;;;;17.40;100.00;97522.69;5053063;28;20235;-76
2022/06/24 04:38:27;;;;;;;6.60;3.57;;;;;;;17.47;100.00;97521.88;5053669;28;20290;-76
2022/06/24 04:40:54;;;;;;;6.60;4.30;;;;;;;17.55;100.00;97521.06;5053571;28;20561;-76
2022/06/24 04:43:20;;;;;;;7.70;3.63;;;;;;;17.63;100.00;97523.75;5053167;28;20208;-76
2022/06/24 04:45:47;;;;;;;6.20;3.90;;;;;;;17.69;100.00;97523.09;5053543;28;20216;-76
2022/06/24 04:48:15;;;;;;;5.97;4.17;;;;;;;17.73;100.00;97519.91;5053559;28;20208;-76
2022/06/24 04:50:41;;;;;;;5.37;3.80;;;;;;;17.83;100.00;97528.63;5053305;28;20216;-77
2022/06/24 04:53:08;;;;;;;6.77;4.03;;;;;;;17.89;100.00;97522.63;5048130;28;20218;-77
2022/06/24 04:55:35;;;;;;;6.03;4.33;;;;;;;18.00;100.00;97508.94;5053251;28;20231;-77
2022/06/24 04:58:01;;;;;;;4.87;3.93;;;;;;;18.14;100.00;97499.38;5053353;28;20214;-77
2022/06/24 05:00:28;;;;;;;6.33;4.93;;;;;;;18.56;100.00;97487.50;5053254;28;20222;-77
2022/06/24 05:02:54;;;;;;;8.47;5.20;;;;;;;19.36;100.00;97470.28;5053094;28;20221;-76
2022/06/24 05:05:22;;;;;;;5.93;4.00;;;;;;;20.09;100.00;97475.00;5053154;28;20211;-77
2022/06/24 05:07:49;;;;;;;5.63;3.83;;;;;;;20.99;100.00;97469.38;5052804;28;20236;-77
2022/06/24 05:10:16;;;;;;;6.53;3.43;;;;;;;21.75;100.00;97455.44;5052836;28;20216;-77
2022/06/24 05:12:42;;;;;;;5.07;3.17;;;;;;;22.39;100.00;97497.41;5052999;28;20240;-77
2022/06/24 05:15:10;;;;;;;7.37;3.50;;;;;;;23.45;100.00;97531.97;5052955;28;20241;-77
2022/06/24 05:17:37;;;;;;;3.47;2.60;;;;;;;24.34;100.00;97526.25;5053065;28;20218;-78
2022/06/24 05:20:04;;;;;;;6.97;3.10;;;;;;;25.01;99.53;97537.69;5051453;28;20216;-77
2022/06/24 05:22:32;;;;;;;6.33;2.87;;;;;;;25.59;93.42;97544.03;5052681;28;20262;-78
2022/06/24 05:24:58;;;;;;;5.53;2.87;;;;;;;26.07;88.34;97532.56;5052958;28;20299;-78
2022/06/24 05:27:25;;;;;;;4.67;2.57;;;;;;;26.47;83.73;97535.84;5052934;28;20218;-78
2022/06/24 05:29:51;;;;;;;4.63;2.70;;;;;;;26.78;80.60;97535.81;5053062;28;20216;-78
2022/06/24 05:32:18;;;;;;;4.40;2.60;;;;;;;27.15;78.82;97527.56;5053129;28;20216;-77
2022/06/24 05:34:44;;;;;;;5.53;2.60;;;;;;;27.48;75.11;97530.75;5053090;28;20208;-77
2022/06/24 05:37:11;;;;;;;6.27;2.83;;;;;;;27.73;73.36;97526.06;5052482;28;20610;-77
2022/06/24 05:39:39;;;;;;;5.90;2.67;;;;;;;27.93;69.88;97527.50;5052812;28;20223;-77
2022/06/24 05:42:06;;;;;;;4.73;2.60;;;;;;;28.17;69.98;97522.97;5052534;28;20303;-77
2022/06/24 05:44:32;;;;;;;5.17;2.40;;;;;;;28.51;69.53;97525.00;5051013;28;20216;-78
2022/06/24 05:46:59;;;;;;;4.43;2.43;;;;;;;28.87;67.62;97519.41;5054525;28;20242;-77
2022/06/24 05:49:25;;;;;;;3.27;2.30;;;;;;;29.14;66.57;97521.44;5056993;28;20230;-77
2022/06/24 05:51:52;;;;;;;4.03;2.40;;;;;;;29.49;65.98;97524.13;5056998;28;20218;-77
2022/06/24 05:57:05;;;;;;;5.17;2.23;;;;;;;30.00;62.43;97526.84;5056736;28;20246;-77
2022/06/24 05:59:35;;;;;;;3.53;1.93;;;;;;;30.14;63.53;97531.00;5056731;28;20238;-77
2022/06/24 06:02:01;;;;;;;3.83;2.00;;;;;;;30.15;64.03;97535.38;5052972;28;20227;-77
2022/06/24 06:04:28;;;;;;;3.83;1.90;;;;;;;30.22;63.70;97536.06;5052942;28;20216;-76
2022/06/24 06:06:54;;;;;;;3.80;2.10;;;;;;;30.36;62.11;97531.94;5053031;28;20323;-77
2022/06/24 06:09:21;;;;;;;3.57;2.20;;;;;;;30.40;62.05;97533.13;5052906;28;20211;-77
2022/06/24 06:11:47;;;;;;;5.47;2.20;;;;;;;30.43;62.66;97532.63;5050818;28;20208;-77
2022/06/24 06:14:15;;;;;;;6.33;1.80;;;;;;;30.30;60.07;97524.75;5056437;28;20217;-79
2022/06/24 06:16:42;;;;;;;4.20;2.00;;;;;;;30.49;60.27;97518.00;5056298;28;20244;-77
2022/06/24 06:19:08;;;;;;;2.67;1.90;;;;;;;30.95;59.60;97528.66;5056492;28;20222;-76
2022/06/24 06:21:35;;;;;;;3.57;2.10;;;;;;;31.38;58.48;97531.53;5056251;28;20212;-77
2022/06/24 06:24:02;;;;;;;5.13;1.87;;;;;;;31.64;56.99;97528.88;5056127;28;20212;-76
2022/06/24 06:26:29;;;;;;;3.97;1.80;;;;;;;31.90;55.99;97524.63;5056289;28;20216;-76
2022/06/24 06:28:55;;;;;;;3.80;2.00;;;;;;;32.11;54.82;97532.78;5056333;28;20212;-76
2022/06/24 06:31:23;;;;;;;3.90;2.13;;;;;;;32.24;52.70;97537.06;5055925;28;20300;-76
2022/06/24 06:33:50;;;;;;;3.33;2.10;;;;;;;32.35;52.03;97536.94;5063682;28;20218;-76
2022/06/24 06:36:17;;;;;;;5.33;2.20;;;;;;;32.37;51.38;97544.84;5055891;28;20235;-75
2022/06/24 06:38:43;;;;;;;6.28;2.85;;;;;;;32.30;49.90;97538.75;5054156;28;20243;-75
2022/06/24 06:41:10;;;;;;;4.05;2.13;;;;;;;32.39;52.48;97537.22;5055846;28;20219;-75
2022/06/24 06:43:37;;;;;;;3.38;2.40;;;;;;;32.49;51.11;97535.41;5055878;28;20212;-75
2022/06/24 06:46:03;;;;;;;5.03;2.20;;;;;;;32.63;51.21;97541.31;5055734;28;20222;-75
2022/06/24 06:48:31;;;;;;;4.55;2.30;;;;;;;32.77;49.83;97537.88;5055807;28;20216;-75
2022/06/24 06:50:59;;;;;;;4.07;2.05;;;;;;;32.90;49.69;97531.16;5055805;28;20208;-75
2022/06/24 06:53:27;;;;;;;5.07;2.00;;;;;;;32.95;46.67;97531.22;5055383;28;20224;-76
2022/06/24 06:55:54;;;;;;;4.82;1.98;;;;;;;32.74;48.06;97526.59;5053848;28;20235;-75
2022/06/24 06:58:22;;;;;;;4.35;2.00;;;;;;;32.63;46.61;97533.09;5053725;28;20211;-75
2022/06/24 07:00:49;;;;;;;5.70;2.67;;;;;;;32.13;47.47;97536.09;5053480;28;20246;-74
2022/06/24 07:03:16;;;;;;;4.18;1.85;;;;;;;30.86;50.82;97527.41;5052779;28;20212;-74
2022/06/24 07:05:44;;;;;;;5.78;1.92;;;;;;;30.66;53.32;97533.38;5053167;28;20208;-74
2022/06/24 07:08:11;;;;;;;4.57;2.03;;;;;;;30.88;52.91;97528.00;5052374;28;20209;-75
2022/06/24 07:10:38;;;;;;;4.95;2.10;;;;;;;31.09;51.14;97527.22;5040093;28;20228;-78
2022/06/24 07:13:05;;;;;;;5.85;2.20;;;;;;;31.03;47.71;97529.06;5035700;28;20577;-76
2022/06/24 07:15:31;;;;;;;4.47;2.10;;;;;;;30.76;51.45;97532.69;5035436;28;20213;-77
2022/06/24 07:17:58;;;;;;;5.77;2.00;;;;;;;29.91;53.62;97529.16;5035451;28;20584;-76
2022/06/24 07:20:24;;;;;;;3.00;2.00;;;;;;;28.83;57.48;97523.63;5034790;28;20219;-73
2022/06/24 07:22:52;;;;;;;4.17;1.90;;;;;;;27.99;62.77;97521.16;5048919;28;20213;-73
2022/06/24 07:25:19;;;;;;;4.37;1.90;;;;;;;27.42;64.04;97526.22;5053834;28;20230;-74
2022/06/24 07:27:45;;;;;;;3.37;1.90;;;;;;;26.92;67.58;97526.50;5053816;28;20666;-75
2022/06/24 07:30:13;;;;;;;3.93;2.30;;;;;;;26.56;69.45;97532.66;5053124;28;20216;-75
2022/06/24 07:32:40;;;;;;;2.40;2.10;;;;;;;26.44;70.29;97522.72;5054660;28;20292;-76
2022/06/24 07:35:07;;;;;;;2.70;1.90;;;;;;;26.36;71.49;97529.25;5055081;28;20216;-74
2022/06/24 07:37:34;;;;;;;3.67;2.00;;;;;;;26.16;72.19;97528.53;5054616;28;20622;-74
2022/06/24 07:40:02;;;;;;;2.20;1.83;;;;;;;26.14;72.88;97527.94;5054881;28;20215;-74
2022/06/24 07:42:29;;;;;;;8.73;2.77;;;;;;;26.16;72.64;97531.25;5053279;28;20763;-76
2022/06/24 07:44:55;;;;;;;2.67;1.97;;;;;;;26.09;70.29;97519.63;5052674;28;20576;-76
2022/06/24 07:47:22;;;;;;;3.43;2.23;;;;;;;26.08;71.78;97526.09;5053422;28;20298;-78
2022/06/24 07:49:48;;;;;;;2.47;1.90;;;;;;;25.94;69.34;97521.81;5053330;28;20226;-75
2022/06/24 07:52:15;;;;;;;3.70;1.90;;;;;;;25.74;69.17;97518.34;5052318;28;20223;-76
2022/06/24 07:54:41;;;;;;;3.10;1.90;;;;;;;25.55;71.84;97510.31;5051780;28;20219;-74
2022/06/24 07:57:08;;;;;;;3.10;2.00;;;;;;;25.38;72.25;97515.38;5051755;28;20263;-74
2022/06/24 07:59:37;;;;;;;3.03;2.17;;;;;;;25.15;72.12;97506.88;5053110;28;20307;-73
2022/06/24 08:02:07;;;;;;;2.80;2.07;;;;;;;25.04;73.50;97507.50;5053173;28;20678;-75
2022/06/24 08:04:33;;;;;;;3.47;1.90;;;;;;;25.04;75.18;97506.66;5053381;28;20274;-76
2022/06/24 08:07:02;;;;;;;3.37;1.93;;;;;;;25.12;75.34;97504.56;5051684;28;20212;-76
2022/06/24 08:09:32;;;;;;;2.90;2.00;;;;;;;25.18;75.67;97495.59;5052310;28;20248;-76
2022/06/24 08:11:59;;;;;;;2.83;2.00;;;;;;;25.17;76.62;97491.25;5053468;28;20212;-76
2022/06/24 08:14:27;;;;;;;3.50;2.33;;;;;;;25.20;77.00;97496.25;5052108;28;20216;-76
2022/06/24 08:16:55;;;;;;;3.40;2.00;;;;;;;25.31;77.25;97492.88;5053256;28;20243;-76
2022/06/24 08:19:21;;;;;;;4.47;2.13;;;;;;;25.45;77.68;97483.69;5053049;28;20720;-76
2022/06/24 08:21:48;;;;;;;4.17;2.30;;;;;;;25.54;74.24;97487.81;5052296;28;20216;-80
2022/06/24 08:24:15;;;;;;;3.07;1.90;;;;;;;25.67;71.16;97482.31;5052445;28;20689;-80
2022/06/24 08:26:41;;;;;;;8.23;2.40;;;;;;;25.82;69.32;97482.88;5053909;28;20219;-79
2022/06/24 08:29:09;;;;;;;3.13;1.80;;;;;;;26.12;70.36;97478.56;5053893;28;20219;-80
2022/06/24 08:31:37;;;;;;;2.07;1.70;;;;;;;26.45;67.95;97473.72;5053490;28;20224;-80
2022/06/24 08:34:03;;;;;;;3.37;1.77;;;;;;;26.75;67.31;97468.50;5053852;28;20216;-81
2022/06/24 08:36:30;;;;;;;2.97;1.90;;;;;;;26.89;64.09;97462.69;5053808;28;20232;-79
2022/06/24 08:38:57;;;;;;;2.40;1.97;;;;;;;27.09;62.99;97475.00;5053400;28;20239;-82
2022/06/24 08:41:25;;;;;;;3.17;1.90;;;;;;;27.41;61.40;97470.28;5053769;28;20236;-81
2022/06/24 08:43:52;;;;;;;2.93;1.77;;;;;;;27.45;59.35;97463.38;5053591;28;20598;-81
2022/06/24 08:46:20;;;;;;;5.30;2.00;;;;;;;27.27;59.45;97460.66;5053422;28;20216;-80
2022/06/24 08:48:48;;;;;;;3.60;1.93;;;;;;;26.94;58.21;97468.28;5052001;28;21096;-80
2022/06/24 08:51:15;;;;;;;2.35;1.70;;;;;;;26.74;59.15;97464.94;5053359;28;20216;-80
2022/06/24 08:53:43;;;;;;;4.63;2.50;;;;;;;26.44;64.56;97472.06;5053558;28;20600;-80
2022/06/24 08:56:10;;;;;;;3.73;2.40;;;;;;;26.11;68.92;97468.78;5053485;28;20295;-77
2022/06/24 08:58:37;;;;;;;5.07;2.50;;;;;;;25.67;72.41;97468.78;5053556;28;20212;-79
2022/06/24 09:01:04;;;;;;;3.00;2.57;;;;;;;25.37;74.26;97464.97;5053380;28;20216;-80
2022/06/24 09:03:30;;;;;;;4.47;2.80;;;;;;;25.40;73.76;97464.56;5053048;28;20216;-82
2022/06/24 09:05:58;;;;;;;4.87;2.53;;;;;;;25.38;74.20;97463.97;5052980;28;20725;-80
2022/06/24 09:08:33;;;;;;;5.77;3.10;;;;;;;25.27;76.42;97453.81;5053232;28;20222;-80
2022/06/24 09:11:10;;;;;;;4.57;2.90;;;;;;;25.19;75.79;97448.59;5053788;28;20216;-79
2022/06/24 09:13:44;;;;;;;5.40;3.10;;;;;;;24.79;76.20;97459.72;5053132;28;20254;-75
2022/06/24 09:16:11;;;;;;;4.93;2.90;;;;;;;24.61;77.37;97456.84;5051007;28;20644;-79
2022/06/24 09:18:39;;;;;;;7.43;3.23;;;;;;;24.48;78.00;97451.41;5051653;28;20208;-76
2022/06/24 09:21:07;;;;;;;3.77;2.83;;;;;;;24.47;81.00;97442.50;5050617;28;20216;-75
2022/06/24 09:23:50;;;;;;;5.07;2.93;;;;;;;24.56;80.23;97443.91;5052866;28;20241;-75
2022/06/24 09:26:28;;;;;;;3.77;2.70;;;;;;;24.68;78.53;97442.28;5053167;28;20257;-75
2022/06/24 09:28:56;;;;;;;5.03;3.17;;;;;;;24.90;79.11;97438.28;5036698;28;20693;-75
2022/06/24 09:31:25;;;;;;;6.50;3.10;;;;;;;24.97;77.52;97441.81;5052790;28;20258;-74
2022/06/24 09:33:52;;;;;;;5.47;2.93;;;;;;;25.05;75.11;97444.25;5039023;28;20204;-73
2022/06/24 09:36:23;;;;;;;3.67;2.83;;;;;;;25.19;75.63;97445.91;5047558;28;20224;-74
2022/06/24 09:38:55;;;;;;;3.03;2.30;;;;;;;25.41;68.83;97452.69;5036361;28;20247;-74
2022/06/24 09:41:21;;;;;;;3.97;2.50;;;;;;;25.74;71.93;97449.81;5049672;28;20790;-74
2022/06/24 09:43:48;;;;;;;3.43;2.30;;;;;;;26.06;66.86;97438.81;5051528;28;20216;-74
2022/06/24 09:46:17;;;;;;;4.77;2.50;;;;;;;26.25;67.97;97447.81;5051354;28;20223;-74
2022/06/24 09:48:44;;;;;;;4.23;2.53;;;;;;;26.43;67.05;97437.03;5051278;28;20692;-74
2022/06/24 09:51:11;;;;;;;3.17;2.60;;;;;;;26.29;66.03;97433.63;5051225;28;20215;-74
2022/06/24 09:53:40;;;;;;;4.03;2.70;;;;;;;25.98;69.24;97439.06;5051162;28;20697;-74
2022/06/24 09:56:08;;;;;;;3.47;2.50;;;;;;;25.78;69.44;97435.63;5051467;28;20208;-74
2022/06/24 09:58:35;;;;;;;4.70;3.07;;;;;;;25.64;69.01;97439.47;5051186;28;20705;-74
2022/06/24 10:01:02;;;;;;;2.80;2.30;;;;;;;25.37;68.52;97440.63;5051473;28;20219;-73
2022/06/24 10:03:29;;;;;;;4.17;2.53;;;;;;;25.21;68.44;97443.81;5051183;28;20612;-74
2022/06/24 10:06:01;;;;;;;4.47;2.50;;;;;;;25.13;69.11;97441.34;5051365;28;20216;-74
2022/06/24 10:08:31;;;;;;;5.03;3.07;;;;;;;25.18;69.30;97438.00;5049759;28;20216;-74
2022/06/24 10:11:01;;;;;;;3.47;2.50;;;;;;;25.28;69.62;97432.97;5051426;28;20307;-74
2022/06/24 10:13:29;;;;;;;3.20;2.40;;;;;;;25.51;72.80;97431.44;5051153;28;20214;-74
2022/06/24 10:15:58;;;;;;;2.73;2.40;;;;;;;25.69;70.30;97442.34;5051350;28;20212;-74
2022/06/24 10:18:28;;;;;;;4.50;2.53;;;;;;;25.83;71.43;97433.09;5051374;28;20232;-74
2022/06/24 10:20:59;;;;;;;3.47;2.50;;;;;;;25.96;68.24;97432.22;5051087;28;20208;-74
2022/06/24 10:23:43;;;;;;;4.63;2.67;;;;;;;25.70;67.91;97422.34;5050994;28;20212;-74
2022/06/24 10:26:16;;;;;;;3.97;2.50;;;;;;;25.45;67.10;97429.59;5061698;28;20573;-74
2022/06/24 10:29:20;;;;;;;3.07;2.17;;;;;;;25.45;63.54;97432.28;5051094;28;20290;-75
2022/06/24 10:32:00;;;;;;;3.00;2.30;;;;;;;25.33;68.72;97431.31;5051195;28;20212;-75
2022/06/24 10:34:38;;;;;;;2.83;2.20;;;;;;;25.51;68.84;97433.28;5054175;28;20231;-74
2022/06/24 10:37:25;;;;;;;4.07;2.50;;;;;;;25.64;67.54;97439.47;5054335;28;20239;-74
2022/06/24 10:39:52;;;;;;;3.83;2.30;;;;;;;25.85;65.18;97432.88;5039811;28;20235;-74
2022/06/24 10:42:21;;;;;;;4.73;3.43;;;;;;;26.01;64.80;97440.50;5054555;28;20223;-74
2022/06/24 10:44:54;;;;;;;3.67;2.10;;;;;;;26.09;62.50;97438.34;5054566;28;20223;-74
2022/06/24 10:47:37;;;;;;;3.37;2.10;;;;;;;26.27;62.78;97437.63;5054772;28;20334;-74
2022/06/24 10:50:06;;;;;;;4.97;2.57;;;;;;;26.17;60.92;97432.69;5054322;28;20215;-75
2022/06/24 10:52:33;;;;;;;3.83;2.50;;;;;;;26.27;64.37;97435.72;5054235;28;20247;-74
2022/06/24 10:55:31;;;;;;;3.87;2.70;;;;;;;26.28;63.68;97431.94;5054158;28;20212;-74
2022/06/24 10:58:03;;;;;;;3.20;2.20;;;;;;;26.41;63.57;97426.44;5054378;28;20236;-75
2022/06/24 11:00:43;;;;;;;5.77;2.30;;;;;;;26.56;61.01;97416.13;5054687;28;20303;-75
2022/06/24 11:03:13;;;;;;;4.13;2.53;;;;;;;26.70;59.78;97419.53;5052400;28;20212;-73
2022/06/24 11:05:41;;;;;;;2.83;1.90;;;;;;;26.93;58.08;97417.81;5054238;28;20258;-76
2022/06/24 11:08:11;;;;;;;2.43;2.03;;;;;;;27.16;55.57;97409.84;5054141;28;20222;-75
2022/06/24 11:10:38;;;;;;;4.30;1.77;;;;;;;27.39;57.28;97418.13;5054124;28;20213;-76
2022/06/24 11:13:06;;;;;;;4.17;2.20;;;;;;;27.45;59.08;97411.78;5054196;28;20208;-76
2022/06/24 11:15:34;;;;;;;3.67;2.20;;;;;;;27.19;55.51;97414.81;5054101;28;20212;-76
2022/06/24 11:18:06;;;;;;;3.17;2.00;;;;;;;26.82;59.10;97415.84;5054021;28;20258;-76
2022/06/24 11:20:36;;;;;;;2.57;2.03;;;;;;;26.74;62.47;97410.72;5054018;28;20219;-76
2022/06/24 11:23:07;;;;;;;4.07;1.90;;;;;;;26.92;64.39;97418.88;5037586;28;20216;-77
2022/06/24 11:25:35;;;;;;;2.47;1.90;;;;;;;27.26;64.29;97412.84;5051267;28;20678;-77
2022/06/24 11:28:02;;;;;;;2.70;1.80;;;;;;;27.60;58.93;97423.06;5051046;28;20220;-78
2022/06/24 11:30:30;;;;;;;3.63;1.80;;;;;;;27.63;57.68;97417.19;5053067;28;20219;-76
2022/06/24 11:32:59;;;;;;;3.07;2.07;;;;;;;27.55;56.45;97414.75;5051752;28;20208;-77
2022/06/24 11:35:27;;;;;;;2.15;1.80;;;;;;;27.42;56.55;97420.38;5046255;28;20615;-77
2022/06/24 11:37:56;;;;;;;2.92;1.70;;;;;;;27.30;54.31;97408.63;5052670;28;20259;-76
2022/06/24 11:40:23;;;;;;;1.60;1.50;;;;;;;27.17;54.75;97407.97;5051848;28;20661;-76